createdAt,value
2023-02-19T00:01:56.484Z,1.63
2023-02-19T00:04:24.845Z,1.85
2023-02-19T00:06:53.287Z,0.98
2023-02-19T00:09:22.399Z,0.95
2023-02-19T00:11:51.100Z,1.25
2023-02-19T00:14:22.228Z,1.40
2023-02-19T00:16:51.017Z,1.27
2023-02-19T00:19:21.748Z,1.52
2023-02-19T00:21:53.701Z,1.73
2023-02-19T00:24:23.132Z,5.30
2023-02-19T00:26:51.571Z,1.00
2023-02-19T00:29:22.072Z,1.77
2023-02-19T00:31:50.734Z,1.95
2023-02-19T00:34:19.141Z,1.92
2023-02-19T00:36:47.859Z,1.55
2023-02-19T00:39:19.160Z,1.10
2023-02-19T00:41:47.736Z,3.85
2023-02-19T00:44:16.542Z,2.50
2023-02-19T00:46:47.835Z,2.72
2023-02-19T00:49:22.172Z,1.95
2023-02-19T00:51:52.361Z,2.83
2023-02-19T00:54:21.271Z,1.52
2023-02-19T00:56:50.219Z,2.60
2023-02-19T00:59:19.070Z,5.78
2023-02-19T01:01:47.544Z,3.58
2023-02-19T01:04:17.408Z,1.73
2023-02-19T01:06:45.766Z,3.33
2023-02-19T01:09:14.549Z,1.73
2023-02-19T01:11:43.262Z,3.10
2023-02-19T01:14:11.868Z,1.30
2023-02-19T01:16:40.232Z,3.38
2023-02-19T01:19:08.726Z,2.28
2023-02-19T01:21:37.025Z,1.83
2023-02-19T01:24:05.434Z,1.95
2023-02-19T01:26:34.706Z,1.17
2023-02-19T01:29:03.816Z,2.97
2023-02-19T01:31:33.562Z,1.42
2023-02-19T01:34:03.526Z,4.45
2023-02-19T01:36:34.409Z,1.77
2023-02-19T01:39:06.453Z,1.98
2023-02-19T01:41:38.827Z,2.67
2023-02-19T01:44:29.996Z,2.47
2023-02-19T01:46:58.384Z,1.40
2023-02-19T01:49:31.322Z,3.97
2023-02-19T01:52:09.472Z,1.63
2023-02-19T01:54:41.777Z,1.73
2023-02-19T01:57:15.304Z,1.77
2023-02-19T01:59:44.406Z,1.23
2023-02-19T02:02:13.142Z,1.33
2023-02-19T02:04:41.502Z,2.95
2023-02-19T02:07:30.188Z,1.83
2023-02-19T02:10:17.454Z,2.80
2023-02-19T02:12:45.713Z,3.10
2023-02-19T02:15:14.973Z,3.15
2023-02-19T02:17:59.059Z,1.50
2023-02-19T02:20:45.420Z,2.67
2023-02-19T02:23:29.044Z,2.75
2023-02-19T02:26:05.720Z,2.53
2023-02-19T02:29:04.596Z,2.17
2023-02-19T02:31:45.237Z,6.18
2023-02-19T02:34:22.806Z,4.25
2023-02-19T02:36:55.957Z,3.88
2023-02-19T02:39:28.350Z,2.78
2023-02-19T02:42:20.038Z,3.40
2023-02-19T02:45:08.402Z,3.72
2023-02-19T02:47:43.144Z,2.45
2023-02-19T02:50:17.684Z,2.45
2023-02-19T02:55:39.168Z,2.15
2023-02-19T03:00:56.170Z,2.22
2023-02-19T03:03:27.665Z,3.13
2023-02-19T03:06:01.221Z,3.10
2023-02-19T03:08:49.554Z,3.47
2023-02-19T03:11:36.308Z,2.05
2023-02-19T03:14:45.601Z,2.15
2023-02-19T03:17:55.156Z,3.65
2023-02-19T03:20:25.722Z,2.67
2023-02-19T03:22:55.920Z,3.72
2023-02-19T03:25:48.141Z,3.20
2023-02-19T03:28:41.726Z,2.28
2023-02-19T03:31:22.065Z,4.28
2023-02-19T03:33:56.694Z,4.38
2023-02-19T03:39:09.427Z,4.22
2023-02-19T03:41:59.259Z,5.43
2023-02-19T03:44:51.621Z,3.50
2023-02-19T03:47:27.589Z,4.90
2023-02-19T03:50:12.822Z,3.92
2023-02-19T03:52:48.117Z,4.45
2023-02-19T03:55:25.653Z,5.38
2023-02-19T03:58:05.970Z,3.92
2023-02-19T04:00:45.222Z,3.60
2023-02-19T04:03:21.925Z,3.78
2023-02-19T04:05:57.633Z,4.43
2023-02-19T04:08:28.286Z,4.88
2023-02-19T04:10:59.402Z,3.45
2023-02-19T04:14:03.789Z,4.20
2023-02-19T04:16:34.694Z,4.18
2023-02-19T04:19:12.770Z,5.68
2023-02-19T04:21:43.225Z,4.18
2023-02-19T04:24:23.361Z,4.72
2023-02-19T04:26:52.004Z,6.70
2023-02-19T04:29:20.310Z,5.00
2023-02-19T04:31:49.184Z,4.97
2023-02-19T04:34:17.617Z,6.38
2023-02-19T04:36:45.908Z,4.30
2023-02-19T04:39:14.331Z,6.03
2023-02-19T04:41:42.610Z,7.75
2023-02-19T04:44:10.887Z,8.75
2023-02-19T04:46:40.301Z,7.82
2023-02-19T04:49:09.834Z,10.20
2023-02-19T04:51:38.287Z,11.90
2023-02-19T04:54:07.151Z,10.23
2023-02-19T04:56:35.541Z,9.07
2023-02-19T04:59:04.010Z,10.43
2023-02-19T05:01:32.598Z,9.95
2023-02-19T05:04:00.894Z,10.15
2023-02-19T05:06:29.271Z,8.73
2023-02-19T05:08:57.581Z,9.63
2023-02-19T05:11:25.865Z,10.70
2023-02-19T05:13:54.141Z,8.50
2023-02-19T05:16:22.411Z,10.15
2023-02-19T05:18:50.745Z,10.65
2023-02-19T05:21:19.101Z,7.85
2023-02-19T05:23:47.486Z,8.25
2023-02-19T05:26:18.997Z,7.60
2023-02-19T05:28:52.615Z,8.57
2023-02-19T05:31:22.018Z,7.85
2023-02-19T05:33:53.661Z,5.43
2023-02-19T05:36:23.175Z,7.97
2023-02-19T05:38:58.740Z,7.60
2023-02-19T05:41:31.282Z,8.18
2023-02-19T05:44:00.280Z,6.60
2023-02-19T05:46:30.993Z,6.75
2023-02-19T05:48:59.363Z,7.25
2023-02-19T05:51:28.938Z,5.57
2023-02-19T05:53:58.408Z,6.13
2023-02-19T05:56:42.523Z,4.72
2023-02-19T05:59:21.504Z,5.33
2023-02-19T06:01:51.995Z,6.53
2023-02-19T06:04:21.338Z,6.97
2023-02-19T06:06:50.137Z,7.05
2023-02-19T06:09:18.783Z,5.82
2023-02-19T06:11:47.321Z,6.70
2023-02-19T06:14:16.276Z,7.40
2023-02-19T06:16:45.708Z,5.38
2023-02-19T06:19:13.986Z,5.82
2023-02-19T06:21:42.431Z,5.35
2023-02-19T06:24:11.576Z,4.90
2023-02-19T06:26:41.036Z,5.55
2023-02-19T06:29:09.308Z,4.93
2023-02-19T06:31:37.704Z,5.10
2023-02-19T06:34:06.713Z,6.82
2023-02-19T06:36:35.086Z,5.10
2023-02-19T06:39:05.428Z,6.22
2023-02-19T06:41:35.388Z,4.55
2023-02-19T06:44:03.946Z,5.40
2023-02-19T06:46:32.276Z,5.97
2023-02-19T06:49:00.686Z,4.68
2023-02-19T06:51:30.640Z,4.03
2023-02-19T06:53:59.204Z,5.60
2023-02-19T06:56:33.354Z,6.05
2023-02-19T06:59:04.198Z,4.97
2023-02-19T07:01:34.640Z,5.80
2023-02-19T07:04:03.728Z,4.72
2023-02-19T07:06:32.427Z,6.68
2023-02-19T07:09:01.467Z,4.47
2023-02-19T07:11:33.174Z,4.90
2023-02-19T07:14:03.534Z,5.03
2023-02-19T07:16:32.174Z,5.13
2023-02-19T07:19:01.882Z,6.90
2023-02-19T07:21:31.335Z,6.50
2023-02-19T07:23:59.906Z,6.65
2023-02-19T07:26:28.179Z,6.90
2023-02-19T07:28:56.495Z,5.68
2023-02-19T07:31:26.204Z,6.95
2023-02-19T07:33:56.099Z,7.35
2023-02-19T07:36:26.454Z,9.18
2023-02-19T07:38:59.314Z,7.30
2023-02-19T07:41:28.858Z,6.85
2023-02-19T07:43:57.296Z,6.95
2023-02-19T07:46:26.574Z,6.97
2023-02-19T07:48:54.845Z,6.57
2023-02-19T07:51:23.592Z,4.80
2023-02-19T07:53:52.143Z,5.07
2023-02-19T07:56:21.771Z,5.00
2023-02-19T07:58:50.629Z,5.18
2023-02-19T08:01:44.507Z,5.95
2023-02-19T08:04:14.921Z,7.03
2023-02-19T08:06:43.962Z,7.05
2023-02-19T08:09:12.807Z,5.07
2023-02-19T08:11:59.326Z,4.47
2023-02-19T08:14:28.821Z,6.30
2023-02-19T08:16:57.822Z,5.63
2023-02-19T08:19:26.217Z,5.65
2023-02-19T08:21:54.663Z,6.22
2023-02-19T08:24:22.940Z,4.43
2023-02-19T08:26:51.588Z,8.73
2023-02-19T08:29:19.906Z,5.68
2023-02-19T08:31:48.288Z,5.53
2023-02-19T08:34:16.742Z,5.65
2023-02-19T08:36:45.127Z,5.88
2023-02-19T08:39:13.412Z,4.40
2023-02-19T08:41:41.706Z,5.22
2023-02-19T08:44:10.038Z,4.95
2023-02-19T08:46:38.761Z,4.45
2023-02-19T08:49:07.071Z,4.78
2023-02-19T08:51:35.321Z,5.22
2023-02-19T08:54:05.194Z,7.00
2023-02-19T08:56:33.508Z,5.53
2023-02-19T08:59:01.788Z,5.60
2023-02-19T09:01:30.105Z,8.15
2023-02-19T09:03:58.413Z,5.68
2023-02-19T09:06:26.921Z,5.00
2023-02-19T09:08:55.256Z,7.88
2023-02-19T09:11:23.538Z,7.18
2023-02-19T09:13:51.829Z,5.47
2023-02-19T09:16:20.105Z,6.57
2023-02-19T09:18:48.475Z,5.55
2023-02-19T09:21:16.777Z,6.07
2023-02-19T09:23:45.063Z,6.70
2023-02-19T09:26:14.831Z,6.95
2023-02-19T09:28:43.246Z,4.32
2023-02-19T09:31:15.114Z,5.90
2023-02-19T09:33:45.289Z,6.00
2023-02-19T09:36:15.328Z,8.65
2023-02-19T09:38:43.939Z,5.93
2023-02-19T09:41:27.585Z,10.75
2023-02-19T09:43:57.007Z,7.72
2023-02-19T09:46:33.521Z,5.53
2023-02-19T09:49:14.533Z,4.93
2023-02-19T09:51:48.532Z,6.15
2023-02-19T09:54:27.591Z,5.28
2023-02-19T09:56:57.593Z,6.90
2023-02-19T09:59:29.838Z,7.40
2023-02-19T10:02:06.080Z,6.40
2023-02-19T10:04:34.381Z,5.63
2023-02-19T10:07:04.640Z,6.55
2023-02-19T10:09:33.016Z,8.93
2023-02-19T10:12:01.639Z,5.88
2023-02-19T10:14:51.515Z,5.72
2023-02-19T10:17:31.605Z,6.78
2023-02-19T10:19:59.927Z,5.68
2023-02-19T10:22:28.514Z,7.03
2023-02-19T10:24:57.690Z,5.25
2023-02-19T10:27:31.511Z,4.97
2023-02-19T10:30:01.523Z,4.93
2023-02-19T10:32:30.643Z,6.03
2023-02-19T10:35:17.687Z,5.22
2023-02-19T10:37:51.714Z,4.38
2023-02-19T10:40:27.154Z,5.47
2023-02-19T10:43:01.632Z,6.43
2023-02-19T10:45:32.581Z,5.75
2023-02-19T10:48:02.080Z,4.13
2023-02-19T10:50:35.652Z,4.28
2023-02-19T10:53:03.925Z,5.10
2023-02-19T10:55:38.104Z,4.10
2023-02-19T10:58:27.899Z,5.57
2023-02-19T11:01:19.516Z,6.35
2023-02-19T11:03:49.957Z,4.55
2023-02-19T11:06:21.547Z,4.75
2023-02-19T11:08:53.177Z,4.63
2023-02-19T11:11:37.376Z,5.88
2023-02-19T11:14:19.835Z,5.83
2023-02-19T11:16:52.902Z,6.68
2023-02-19T11:19:30.469Z,5.45
2023-02-19T11:22:00.595Z,5.10
2023-02-19T11:24:34.902Z,4.65
2023-02-19T11:27:08.727Z,5.82
2023-02-19T11:29:37.176Z,7.10
2023-02-19T11:32:30.605Z,4.97
2023-02-19T11:35:37.275Z,5.03
2023-02-19T11:38:11.586Z,5.65
2023-02-19T11:41:08.555Z,4.22
2023-02-19T11:43:53.739Z,4.10
2023-02-19T11:46:27.636Z,4.55
2023-02-19T11:49:07.885Z,8.32
2023-02-19T11:52:02.467Z,5.30
2023-02-19T11:54:31.089Z,4.73
2023-02-19T11:57:37.080Z,4.13
2023-02-19T12:00:28.092Z,4.80
2023-02-19T12:03:16.424Z,3.47
2023-02-19T12:05:59.277Z,4.53
2023-02-19T12:08:45.577Z,4.97
2023-02-19T12:11:32.311Z,5.70
2023-02-19T12:14:32.950Z,5.70
2023-02-19T12:17:26.617Z,4.95
2023-02-19T12:20:08.504Z,5.13
2023-02-19T12:22:44.412Z,4.18
2023-02-19T12:25:49.808Z,3.63
2023-02-19T12:28:48.437Z,4.18
2023-02-19T12:31:36.075Z,3.67
2023-02-19T12:34:22.922Z,3.00
2023-02-19T12:37:21.891Z,5.05
2023-02-19T12:40:23.962Z,3.70
2023-02-19T12:43:18.920Z,4.57
2023-02-19T12:45:51.502Z,4.00
2023-02-19T12:48:45.602Z,4.32
2023-02-19T12:51:42.730Z,4.18
2023-02-19T12:54:16.153Z,3.70
2023-02-19T12:56:48.413Z,4.55
2023-02-19T12:59:24.185Z,4.00
2023-02-19T13:02:06.407Z,5.22
2023-02-19T13:05:01.261Z,4.28
2023-02-19T13:07:44.888Z,3.30
2023-02-19T13:10:48.156Z,5.63
2023-02-19T13:13:24.031Z,4.32
2023-02-19T13:16:01.391Z,6.43
2023-02-19T13:19:00.400Z,5.57
2023-02-19T13:21:53.594Z,4.50
2023-02-19T13:24:26.646Z,3.40
2023-02-19T13:27:36.518Z,4.28
2023-02-19T13:30:14.607Z,5.22
2023-02-19T13:33:20.678Z,4.60
2023-02-19T13:36:06.868Z,4.28
2023-02-19T13:38:49.978Z,3.80
2023-02-19T13:41:28.955Z,4.25
2023-02-19T13:44:09.281Z,7.68
2023-02-19T13:46:45.393Z,4.05
2023-02-19T13:49:42.794Z,5.22
2023-02-19T13:52:29.624Z,5.07
2023-02-19T13:55:34.612Z,4.45
2023-02-19T13:58:41.311Z,4.43
2023-02-19T14:01:12.246Z,5.07
2023-02-19T14:03:47.404Z,3.78
2023-02-19T14:06:16.155Z,5.28
2023-02-19T14:08:49.134Z,5.22
2023-02-19T14:11:18.795Z,4.40
2023-02-19T14:13:54.194Z,3.08
2023-02-19T14:16:35.805Z,3.65
2023-02-19T14:19:04.513Z,3.63
2023-02-19T14:21:41.792Z,3.50
2023-02-19T14:24:15.662Z,5.53
2023-02-19T14:26:44.377Z,5.45
2023-02-19T14:29:17.476Z,4.10
2023-02-19T14:31:47.178Z,3.92
2023-02-19T14:34:23.196Z,3.22
2023-02-19T14:36:54.368Z,3.45
2023-02-19T14:39:36.005Z,2.72
2023-02-19T14:42:08.891Z,3.72
2023-02-19T14:44:53.717Z,2.90
2023-02-19T14:47:24.512Z,3.78
2023-02-19T14:50:06.777Z,3.47
2023-02-19T14:52:46.677Z,5.78
2023-02-19T14:55:37.090Z,3.83
2023-02-19T14:58:11.516Z,4.55
2023-02-19T15:00:41.658Z,3.67
2023-02-19T15:03:33.237Z,4.45
2023-02-19T15:06:12.330Z,4.38
2023-02-19T15:09:04.769Z,3.85
2023-02-19T15:11:36.180Z,4.00
2023-02-19T15:14:08.796Z,4.20
2023-02-19T15:16:37.874Z,4.68
2023-02-19T15:19:10.623Z,4.40
2023-02-19T15:21:45.832Z,3.08
2023-02-19T15:24:16.820Z,3.55
2023-02-19T15:26:51.419Z,4.53
2023-02-19T15:29:22.302Z,4.03
2023-02-19T15:31:55.821Z,3.83
2023-02-19T15:34:29.890Z,3.40
2023-02-19T15:37:07.355Z,3.10
2023-02-19T15:39:45.888Z,4.63
2023-02-19T15:42:24.037Z,2.78
2023-02-19T15:45:19.431Z,3.10
2023-02-19T15:48:01.061Z,4.65
2023-02-19T15:50:37.992Z,3.97
2023-02-19T15:53:22.971Z,4.30
2023-02-19T15:56:08.883Z,3.25
2023-02-19T15:58:54.027Z,4.93
2023-02-19T16:04:00.376Z,4.82
2023-02-19T16:06:29.842Z,4.38
2023-02-19T16:09:05.432Z,5.85
2023-02-19T16:11:39.844Z,4.90
2023-02-19T16:14:35.040Z,3.15
2023-02-19T16:17:12.442Z,4.15
2023-02-19T16:19:55.615Z,4.03
2023-02-19T16:22:26.846Z,5.60
2023-02-19T16:25:01.955Z,3.67
2023-02-19T16:27:36.392Z,4.43
2023-02-19T16:30:32.938Z,6.68
2023-02-19T16:33:37.853Z,5.05
2023-02-19T16:36:24.796Z,3.60
2023-02-19T16:39:07.941Z,4.15
2023-02-19T16:41:36.267Z,3.83
2023-02-19T16:44:32.956Z,2.63
2023-02-19T16:47:28.670Z,3.17
2023-02-19T16:49:58.349Z,3.45
2023-02-19T16:52:26.672Z,2.53
2023-02-19T16:54:55.000Z,2.63
2023-02-19T16:57:23.393Z,5.22
2023-02-19T16:59:51.830Z,3.38
2023-02-19T17:02:23.440Z,2.83
2023-02-19T17:04:56.034Z,3.78
2023-02-19T17:07:24.569Z,4.45
2023-02-19T17:09:52.896Z,5.88
2023-02-19T17:12:21.458Z,3.45
2023-02-19T17:14:52.076Z,6.28
2023-02-19T17:17:20.388Z,4.82
2023-02-19T17:19:49.393Z,4.88
2023-02-19T17:22:18.686Z,4.50
2023-02-19T17:24:47.424Z,4.22
2023-02-19T17:27:15.971Z,2.97
2023-02-19T17:29:44.876Z,5.32
2023-02-19T17:32:13.464Z,4.78
2023-02-19T17:34:41.900Z,5.43
2023-02-19T17:37:10.149Z,4.88
2023-02-19T17:39:38.410Z,5.07
2023-02-19T17:42:07.026Z,5.35
2023-02-19T17:44:35.436Z,6.70
2023-02-19T17:47:03.864Z,5.65
2023-02-19T17:49:33.238Z,6.38
2023-02-19T17:52:01.548Z,3.70
2023-02-19T17:54:29.929Z,5.25
2023-02-19T17:56:58.208Z,4.82
2023-02-19T17:59:26.554Z,5.10
2023-02-19T18:01:54.886Z,5.30
2023-02-19T18:04:23.309Z,6.60
2023-02-19T18:06:51.754Z,4.88
2023-02-19T18:09:22.334Z,5.07
2023-02-19T18:11:50.728Z,5.75
2023-02-19T18:14:19.041Z,5.78
2023-02-19T18:16:50.450Z,5.63
2023-02-19T18:19:19.106Z,5.50
2023-02-19T18:21:47.591Z,5.97
2023-02-19T18:24:16.146Z,5.55
2023-02-19T18:26:44.859Z,6.30
2023-02-19T18:29:13.919Z,5.75
2023-02-19T18:31:42.309Z,4.20
2023-02-19T18:34:19.236Z,6.13
2023-02-19T18:36:49.409Z,5.38
2023-02-19T18:39:20.774Z,4.53
2023-02-19T18:41:50.661Z,4.43
2023-02-19T18:44:21.564Z,7.65
2023-02-19T18:46:50.650Z,5.72
2023-02-19T18:49:19.157Z,6.47
2023-02-19T18:51:48.179Z,6.10
2023-02-19T18:54:16.662Z,7.07
2023-02-19T18:56:46.711Z,5.63
2023-02-19T18:59:15.585Z,5.15
2023-02-19T19:01:45.098Z,5.03
2023-02-19T19:04:14.011Z,6.63
2023-02-19T19:06:42.296Z,5.47
2023-02-19T19:09:10.667Z,6.07
2023-02-19T19:11:39.386Z,5.82
2023-02-19T19:14:07.717Z,5.10
2023-02-19T19:16:36.379Z,5.00
2023-02-19T19:19:04.736Z,5.30
2023-02-19T19:21:33.117Z,4.85
2023-02-19T19:24:01.464Z,4.85
2023-02-19T19:26:29.898Z,5.30
2023-02-19T19:28:58.253Z,4.10
2023-02-19T19:31:27.489Z,4.25
2023-02-19T19:33:55.865Z,5.70
2023-02-19T19:36:25.479Z,5.10
2023-02-19T19:38:54.014Z,4.45
2023-02-19T19:41:22.748Z,4.65
2023-02-19T19:43:51.087Z,5.55
2023-02-19T19:46:21.010Z,4.72
2023-02-19T19:48:51.314Z,4.10
2023-02-19T19:51:19.848Z,3.35
2023-02-19T19:53:50.144Z,5.88
2023-02-19T19:56:19.637Z,4.32
2023-02-19T19:58:49.711Z,7.70
2023-02-19T20:01:21.791Z,5.50
2023-02-19T20:03:54.353Z,4.72
2023-02-19T20:06:30.337Z,5.28
2023-02-19T20:09:00.586Z,4.32
2023-02-19T20:11:29.078Z,2.88
2023-02-19T20:13:57.369Z,3.80
2023-02-19T20:16:27.814Z,3.85
2023-02-19T20:18:56.210Z,3.10
2023-02-19T20:21:24.512Z,3.22
2023-02-19T20:23:52.801Z,5.70
2023-02-19T20:26:26.652Z,3.67
2023-02-19T20:28:55.936Z,3.25
2023-02-19T20:31:25.151Z,2.72
2023-02-19T20:33:53.721Z,3.55
2023-02-19T20:36:22.095Z,2.00
2023-02-19T20:38:53.386Z,2.13
2023-02-19T20:41:21.772Z,2.10
2023-02-19T20:43:50.365Z,1.92
2023-02-19T20:46:19.654Z,2.10
2023-02-19T20:48:49.441Z,1.27
2023-02-19T20:51:18.797Z,2.72
2023-02-19T20:53:47.134Z,3.47
2023-02-19T20:56:15.820Z,2.83
2023-02-19T20:58:44.264Z,2.92
2023-02-19T21:01:12.997Z,2.95
2023-02-19T21:03:41.499Z,1.55
2023-02-19T21:06:10.026Z,1.73
2023-02-19T21:08:38.613Z,2.03
2023-02-19T21:11:07.205Z,1.63
2023-02-19T21:13:36.159Z,2.47
2023-02-19T21:16:04.957Z,1.38
2023-02-19T21:18:33.301Z,1.63
2023-02-19T21:21:01.640Z,2.53
2023-02-19T21:23:29.955Z,1.58
2023-02-19T21:25:58.425Z,2.25
2023-02-19T21:28:26.784Z,2.38
2023-02-19T21:30:55.281Z,2.90
2023-02-19T21:33:23.569Z,1.65
2023-02-19T21:35:51.889Z,1.90
2023-02-19T21:38:20.199Z,1.52
2023-02-19T21:40:48.511Z,1.63
2023-02-19T21:43:17.250Z,1.67
2023-02-19T21:45:45.636Z,1.27
2023-02-19T21:48:13.991Z,2.53
2023-02-19T21:50:46.395Z,2.75
2023-02-19T21:53:15.585Z,1.45
2023-02-19T21:55:56.650Z,2.17
2023-02-19T21:58:26.800Z,1.75
2023-02-19T22:00:55.270Z,1.85
2023-02-19T22:03:23.597Z,1.95
2023-02-19T22:05:51.881Z,2.08
2023-02-19T22:08:20.379Z,2.22
2023-02-19T22:10:48.912Z,2.08
2023-02-19T22:13:17.320Z,1.60
2023-02-19T22:15:45.699Z,2.38
2023-02-19T22:18:13.990Z,3.95
2023-02-19T22:20:42.343Z,1.90
2023-02-19T22:23:10.678Z,1.75
2023-02-19T22:25:38.990Z,1.73
2023-02-19T22:28:08.665Z,1.45
2023-02-19T22:30:37.073Z,1.25
2023-02-19T22:33:07.102Z,2.30
2023-02-19T22:35:35.505Z,2.63
2023-02-19T22:38:03.822Z,2.00
2023-02-19T22:40:32.191Z,2.05
2023-02-19T22:43:00.469Z,2.22
2023-02-19T22:45:28.750Z,1.30
2023-02-19T22:47:57.258Z,1.90
2023-02-19T22:50:27.320Z,1.85
2023-02-19T22:52:56.029Z,1.83
2023-02-19T22:55:24.369Z,1.17
2023-02-19T22:57:52.741Z,1.40
2023-02-19T23:00:22.471Z,2.35
2023-02-19T23:02:50.917Z,2.00
2023-02-19T23:05:19.276Z,1.27
2023-02-19T23:07:48.190Z,2.25
2023-02-19T23:10:16.524Z,1.77
2023-02-19T23:12:44.825Z,1.25
2023-02-19T23:15:13.368Z,1.95
2023-02-19T23:17:42.309Z,1.30
2023-02-19T23:20:10.952Z,3.10
2023-02-19T23:22:39.318Z,1.15
2023-02-19T23:25:07.875Z,1.88
2023-02-19T23:27:36.147Z,1.50
2023-02-19T23:30:04.766Z,1.75
2023-02-19T23:32:33.124Z,1.75
2023-02-19T23:35:01.393Z,1.20
2023-02-19T23:37:29.760Z,1.50
2023-02-19T23:39:58.075Z,2.00
2023-02-19T23:42:26.473Z,2.22
2023-02-19T23:44:54.784Z,1.80
2023-02-19T23:47:23.426Z,3.47
2023-02-19T23:49:51.730Z,2.80
2023-02-19T23:52:20.008Z,2.13
2023-02-19T23:54:48.310Z,2.13
2023-02-19T23:57:16.746Z,3.30
2023-02-19T23:59:45.652Z,2.63
